Time;durP1;ratioP1;P1;durP2;ratioP2;P2;SDS_P1;SDS_P2;PMS_P1;PMS_P2;Temp;Humidity;BMP_temperature;BMP_pressure;BME280_temperature;BME280_humidity;BME280_pressure;Samples;Min_cycle;Max_cycle;Signal;HPM_P1;HPM_P2
2023/04/24 00:01:47;;;;;;;;;4.00;2.00;;;;;;;;5098809;27;61807;-78
2023/04/24 00:04:13;;;;;;;;;3.25;2.00;;;;;;;;5101899;27;61786;-78
2023/04/24 00:06:42;;;;;;;;;4.00;3.00;;;;;;;;5099599;27;61929;-78
2023/04/24 00:09:09;;;;;;;;;2.00;2.00;;;;;;;;5102384;27;61762;-78
2023/04/24 00:11:35;;;;;;;;;2.00;2.00;;;;;;;;5101004;27;61945;-78
2023/04/24 00:14:01;;;;;;;;;4.25;2.00;;;;;;;;5094621;27;62134;-78
2023/04/24 00:16:26;;;;;;;;;3.00;1.75;;;;;;;;5104229;27;61934;-78
2023/04/24 00:18:52;;;;;;;;;6.25;2.00;;;;;;;;5084506;27;61827;-78
2023/04/24 00:21:17;;;;;;;;;3.00;2.00;;;;;;;;5103483;27;62014;-78
2023/04/24 00:23:43;;;;;;;;;3.00;2.00;;;;;;;;5123785;27;61903;-78
2023/04/24 00:26:08;;;;;;;;;4.00;3.00;;;;;;;;5101278;27;62050;-78
2023/04/24 00:28:34;;;;;;;;;3.00;3.00;;;;;;;;5105276;27;62628;-78
2023/04/24 00:30:59;;;;;;;;;8.75;3.75;;;;;;;;5104163;27;61948;-78
2023/04/24 00:33:24;;;;;;;;;3.25;2.00;;;;;;;;5103652;27;61868;-78
2023/04/24 00:35:49;;;;;;;;;3.25;2.25;;;;;;;;5103183;27;62111;-78
2023/04/24 00:38:15;;;;;;;;;4.00;2.00;;;;;;;;5105469;27;61720;-78
2023/04/24 00:40:40;;;;;;;;;2.00;2.00;;;;;;;;5092703;27;61997;-78
2023/04/24 00:43:05;;;;;;;;;3.25;3.25;;;;;;;;5117475;27;61994;-78
2023/04/24 00:45:31;;;;;;;;;2.75;2.75;;;;;;;;5095237;27;62108;-78
2023/04/24 00:47:56;;;;;;;;;3.75;3.00;;;;;;;;5103508;27;61949;-78
2023/04/24 00:50:21;;;;;;;;;5.50;1.75;;;;;;;;5118459;27;62159;-78
2023/04/24 00:52:47;;;;;;;;;2.00;2.00;;;;;;;;5099987;27;61897;-78
2023/04/24 00:55:12;;;;;;;;;2.00;2.00;;;;;;;;5096350;27;62377;-78
2023/04/24 00:57:38;;;;;;;;;5.75;2.00;;;;;;;;5104082;27;61974;-78
2023/04/24 01:00:05;;;;;;;;;3.25;3.25;;;;;;;;5103410;27;62196;-78
2023/04/24 01:02:34;;;;;;;;;6.50;2.00;;;;;;;;5096604;27;61957;-78
2023/04/24 01:04:59;;;;;;;;;1.75;1.75;;;;;;;;5103325;27;61817;-77
2023/04/24 01:07:25;;;;;;;;;7.00;3.00;;;;;;;;5094417;27;61791;-77
2023/04/24 01:09:51;;;;;;;;;1.25;1.25;;;;;;;;5101871;27;64537;-78
2023/04/24 01:12:17;;;;;;;;;2.75;2.75;;;;;;;;5101847;27;62184;-78
2023/04/24 01:14:42;;;;;;;;;6.00;2.50;;;;;;;;5102079;27;61764;-77
2023/04/24 01:17:09;;;;;;;;;6.00;1.00;;;;;;;;5105133;27;61770;-78
2023/04/24 01:19:34;;;;;;;;;2.75;2.75;;;;;;;;5103060;27;62657;-77
2023/04/24 01:22:01;;;;;;;;;4.50;2.00;;;;;;;;5090154;27;61942;-78
2023/04/24 01:24:27;;;;;;;;;3.00;3.00;;;;;;;;5098741;27;62069;-78
2023/04/24 01:26:52;;;;;;;;;1.00;1.00;;;;;;;;5116887;27;61967;-78
2023/04/24 01:29:18;;;;;;;;;6.00;3.50;;;;;;;;5103780;27;61898;-78
2023/04/24 01:31:43;;;;;;;;;1.25;1.25;;;;;;;;5093238;27;61806;-78
2023/04/24 01:34:08;;;;;;;;;2.25;1.25;;;;;;;;5102208;27;61754;-78
2023/04/24 01:36:34;;;;;;;;;2.75;2.00;;;;;;;;5098727;27;62284;-78
2023/04/24 01:39:00;;;;;;;;;3.75;2.75;;;;;;;;5109215;27;62138;-78
2023/04/24 01:41:25;;;;;;;;;6.00;3.00;;;;;;;;5091560;27;61807;-78
2023/04/24 01:43:51;;;;;;;;;2.00;2.00;;;;;;;;5108864;27;61919;-78
2023/04/24 01:46:16;;;;;;;;;4.00;3.00;;;;;;;;5102986;27;61736;-78
2023/04/24 01:48:41;;;;;;;;;2.00;2.00;;;;;;;;5100428;27;63670;-77
2023/04/24 01:51:07;;;;;;;;;3.25;2.75;;;;;;;;5099616;27;62012;-78
2023/04/24 01:53:32;;;;;;;;;2.00;2.00;;;;;;;;5095058;27;61805;-78
2023/04/24 01:55:57;;;;;;;;;3.00;3.00;;;;;;;;5097920;27;61901;-78
2023/04/24 01:58:23;;;;;;;;;2.00;2.00;;;;;;;;5103073;27;61955;-78
2023/04/24 02:00:48;;;;;;;;;3.50;2.50;;;;;;;;5099628;27;61909;-78
2023/04/24 02:03:13;;;;;;;;;3.00;3.00;;;;;;;;5090411;27;62310;-78
2023/04/24 02:05:38;;;;;;;;;2.25;1.25;;;;;;;;5099896;27;62189;-78
2023/04/24 02:08:04;;;;;;;;;1.75;1.00;;;;;;;;5103239;27;62912;-78
2023/04/24 02:10:29;;;;;;;;;3.25;2.00;;;;;;;;5102946;27;61964;-78
2023/04/24 02:12:54;;;;;;;;;11.00;4.00;;;;;;;;5103958;27;61845;-78
2023/04/24 02:15:19;;;;;;;;;2.25;2.00;;;;;;;;5094940;27;61715;-78
2023/04/24 02:17:45;;;;;;;;;1.00;1.00;;;;;;;;5101976;27;61943;-78
2023/04/24 02:20:10;;;;;;;;;3.25;2.00;;;;;;;;5102115;27;62042;-78
2023/04/24 02:22:35;;;;;;;;;2.50;2.50;;;;;;;;5103737;27;62027;-78
2023/04/24 02:25:01;;;;;;;;;1.00;1.00;;;;;;;;5101148;27;62265;-78
2023/04/24 02:27:26;;;;;;;;;1.75;1.75;;;;;;;;5101094;27;63482;-78
2023/04/24 02:29:51;;;;;;;;;3.00;2.75;;;;;;;;5101240;27;62014;-78
2023/04/24 02:32:16;;;;;;;;;1.75;1.75;;;;;;;;5101855;27;61823;-78
2023/04/24 02:34:44;;;;;;;;;2.00;2.00;;;;;;;;5098072;27;61981;-78
2023/04/24 02:37:10;;;;;;;;;2.75;2.00;;;;;;;;5093029;27;61952;-78
2023/04/24 02:39:35;;;;;;;;;3.75;1.00;;;;;;;;5102853;27;61837;-78
2023/04/24 02:42:01;;;;;;;;;1.00;1.00;;;;;;;;5102685;27;61940;-78
2023/04/24 02:44:26;;;;;;;;;1.00;1.00;;;;;;;;5103369;27;61781;-78
2023/04/24 02:46:52;;;;;;;;;1.75;1.25;;;;;;;;5092042;27;62114;-78
2023/04/24 02:49:17;;;;;;;;;2.00;2.00;;;;;;;;5101496;27;61941;-78
2023/04/24 02:51:42;;;;;;;;;4.00;1.50;;;;;;;;5102202;27;61718;-78
2023/04/24 02:54:09;;;;;;;;;3.25;2.50;;;;;;;;5102047;27;61997;-78
2023/04/24 02:56:34;;;;;;;;;3.75;1.00;;;;;;;;5099793;27;61927;-78
2023/04/24 02:58:59;;;;;;;;;0.75;0.50;;;;;;;;5100812;27;62153;-78
2023/04/24 03:01:25;;;;;;;;;2.00;2.00;;;;;;;;5091389;27;61771;-78
2023/04/24 03:03:50;;;;;;;;;1.00;1.00;;;;;;;;5101901;27;61911;-78
2023/04/24 03:06:15;;;;;;;;;2.50;2.50;;;;;;;;5102414;27;62791;-78
2023/04/24 03:08:41;;;;;;;;;2.00;2.00;;;;;;;;5099421;27;62094;-78
2023/04/24 03:11:06;;;;;;;;;6.00;1.25;;;;;;;;5103257;27;62163;-78
2023/04/24 03:13:31;;;;;;;;;1.00;1.00;;;;;;;;5101826;27;61848;-78
2023/04/24 03:15:56;;;;;;;;;3.00;2.00;;;;;;;;5097804;27;61884;-78
2023/04/24 03:18:21;;;;;;;;;2.50;2.00;;;;;;;;5102396;27;62028;-78
2023/04/24 03:20:47;;;;;;;;;1.50;1.50;;;;;;;;5102445;27;61747;-78
2023/04/24 03:23:12;;;;;;;;;2.00;1.00;;;;;;;;5102339;27;61820;-78
2023/04/24 03:25:37;;;;;;;;;3.00;2.00;;;;;;;;5090694;27;62676;-78
2023/04/24 03:28:03;;;;;;;;;3.50;0.75;;;;;;;;5097183;27;61672;-78
2023/04/24 03:30:28;;;;;;;;;2.50;2.50;;;;;;;;5101816;27;61773;-78
2023/04/24 03:32:53;;;;;;;;;1.75;1.50;;;;;;;;5100774;27;62339;-78
2023/04/24 03:35:18;;;;;;;;;4.25;1.75;;;;;;;;5099228;27;63502;-78
2023/04/24 03:37:44;;;;;;;;;7.00;2.00;;;;;;;;5100670;27;61938;-78
2023/04/24 03:40:09;;;;;;;;;3.00;2.00;;;;;;;;5104828;27;61848;-78
2023/04/24 03:42:34;;;;;;;;;1.00;1.00;;;;;;;;5089895;27;61944;-78
2023/04/24 03:45:00;;;;;;;;;1.50;1.50;;;;;;;;5100881;27;63756;-78
2023/04/24 03:47:25;;;;;;;;;6.00;2.00;;;;;;;;5093441;27;62480;-78
2023/04/24 03:49:50;;;;;;;;;7.00;2.00;;;;;;;;5102260;27;61825;-78
2023/04/24 03:52:16;;;;;;;;;3.00;3.00;;;;;;;;5089454;27;61790;-78
2023/04/24 03:54:41;;;;;;;;;1.00;1.00;;;;;;;;5094678;27;62193;-78
2023/04/24 03:57:06;;;;;;;;;3.00;3.00;;;;;;;;5089560;27;61994;-78
2023/04/24 03:59:31;;;;;;;;;6.25;1.25;;;;;;;;5123399;27;62105;-78
2023/04/24 04:01:57;;;;;;;;;1.75;1.75;;;;;;;;5105071;27;62165;-78
2023/04/24 04:04:22;;;;;;;;;1.75;0.00;;;;;;;;5104881;27;61886;-78
2023/04/24 04:06:47;;;;;;;;;1.25;1.25;;;;;;;;5094470;27;61988;-78
2023/04/24 04:09:13;;;;;;;;;1.00;1.00;;;;;;;;5095252;27;61729;-78
2023/04/24 04:11:38;;;;;;;;;2.75;1.75;;;;;;;;5097373;27;62124;-79
2023/04/24 04:14:04;;;;;;;;;1.00;1.00;;;;;;;;5084468;27;62769;-79
2023/04/24 04:16:29;;;;;;;;;3.00;2.00;;;;;;;;5103762;27;61937;-79
2023/04/24 04:18:55;;;;;;;;;2.75;2.75;;;;;;;;5104725;27;61831;-78
2023/04/24 04:21:20;;;;;;;;;1.00;1.00;;;;;;;;5102577;27;61869;-79
2023/04/24 04:23:45;;;;;;;;;4.50;1.00;;;;;;;;5105127;27;62792;-79
2023/04/24 04:26:12;;;;;;;;;5.75;4.75;;;;;;;;5108047;27;61910;-79
2023/04/24 04:28:39;;;;;;;;;1.75;1.75;;;;;;;;5105645;27;62137;-79
2023/04/24 04:31:04;;;;;;;;;2.00;2.00;;;;;;;;5099438;27;61896;-79
2023/04/24 04:33:29;;;;;;;;;4.50;2.00;;;;;;;;5111691;27;62756;-78
2023/04/24 04:35:56;;;;;;;;;2.75;2.75;;;;;;;;5103160;27;61915;-79
2023/04/24 04:38:21;;;;;;;;;2.75;1.00;;;;;;;;5104600;27;62423;-79
2023/04/24 04:40:47;;;;;;;;;1.00;1.00;;;;;;;;5122260;27;61864;-79
2023/04/24 04:43:15;;;;;;;;;2.00;1.00;;;;;;;;5102609;27;61978;-79
2023/04/24 04:45:42;;;;;;;;;4.25;2.00;;;;;;;;5089039;27;62087;-78
2023/04/24 04:48:09;;;;;;;;;4.00;2.00;;;;;;;;5104352;27;62110;-79
2023/04/24 04:50:35;;;;;;;;;3.00;3.00;;;;;;;;5083806;27;61938;-79
2023/04/24 04:53:00;;;;;;;;;2.00;2.00;;;;;;;;5102657;27;61821;-79
2023/04/24 04:55:25;;;;;;;;;2.00;2.00;;;;;;;;5088379;27;61929;-79
2023/04/24 04:57:51;;;;;;;;;2.25;2.25;;;;;;;;5104381;27;61878;-79
2023/04/24 05:00:16;;;;;;;;;1.50;1.50;;;;;;;;5105179;27;62104;-79
2023/04/24 05:02:41;;;;;;;;;2.25;2.25;;;;;;;;5100594;27;64527;-76
2023/04/24 05:05:07;;;;;;;;;2.00;1.75;;;;;;;;5103177;27;62050;-76
2023/04/24 05:07:33;;;;;;;;;3.00;3.00;;;;;;;;5113729;27;62040;-77
2023/04/24 05:09:58;;;;;;;;;7.25;3.25;;;;;;;;5114058;27;61906;-76
2023/04/24 05:12:23;;;;;;;;;6.75;3.00;;;;;;;;5116996;27;63447;-76
2023/04/24 05:14:48;;;;;;;;;4.00;4.00;;;;;;;;5103565;27;61836;-77
2023/04/24 05:17:14;;;;;;;;;6.25;3.25;;;;;;;;5103216;27;61946;-82
2023/04/24 05:19:40;;;;;;;;;5.50;3.50;;;;;;;;5108356;27;61878;-82
2023/04/24 05:22:06;;;;;;;;;7.00;5.00;;;;;;;;5087681;27;61878;-86
2023/04/24 05:24:32;;;;;;;;;3.25;3.00;;;;;;;;5105167;27;62083;-82
2023/04/24 05:26:58;;;;;;;;;2.00;2.00;;;;;;;;5093765;27;61919;-80
2023/04/24 05:29:31;;;;;;;;;4.25;3.75;;;;;;;;5106893;27;61754;-83
2023/04/24 05:31:57;;;;;;;;;8.25;4.00;;;;;;;;5123387;27;62613;-79
2023/04/24 05:34:22;;;;;;;;;5.75;3.00;;;;;;;;5101447;27;61754;-82
2023/04/24 05:36:50;;;;;;;;;4.00;3.00;;;;;;;;5102593;27;62066;-82
2023/04/24 05:39:16;;;;;;;;;4.50;2.00;;;;;;;;5095741;27;61972;-79
2023/04/24 05:41:41;;;;;;;;;5.00;3.00;;;;;;;;5102467;27;61878;-79
2023/04/24 05:44:06;;;;;;;;;3.50;2.00;;;;;;;;5100955;27;61902;-80
2023/04/24 05:46:32;;;;;;;;;2.75;2.50;;;;;;;;5099576;27;61813;-80
2023/04/24 05:48:57;;;;;;;;;5.50;3.00;;;;;;;;5097341;27;61860;-80
2023/04/24 05:51:23;;;;;;;;;3.50;3.50;;;;;;;;5100669;27;62798;-81
2023/04/24 05:53:48;;;;;;;;;6.75;4.00;;;;;;;;5098442;27;61944;-76
2023/04/24 05:56:22;;;;;;;;;3.50;3.50;;;;;;;;5100234;27;62257;-82
2023/04/24 05:58:48;;;;;;;;;6.25;4.00;;;;;;;;5096125;27;61973;-79
2023/04/24 06:01:16;;;;;;;;;4.50;4.00;;;;;;;;5101437;27;64887;-77
2023/04/24 06:03:44;;;;;;;;;3.25;3.25;;;;;;;;5101415;27;62283;-82
2023/04/24 06:06:10;;;;;;;;;8.25;4.25;;;;;;;;5104072;27;61804;-82
2023/04/24 06:08:35;;;;;;;;;7.50;3.00;;;;;;;;5102293;27;62130;-81
2023/04/24 06:11:01;;;;;;;;;6.50;6.50;;;;;;;;5100915;27;64027;-82
2023/04/24 06:13:26;;;;;;;;;4.00;2.50;;;;;;;;5098759;27;62039;-81
2023/04/24 06:15:52;;;;;;;;;7.25;3.50;;;;;;;;5101808;27;62185;-82
2023/04/24 06:18:17;;;;;;;;;5.25;3.00;;;;;;;;5099887;27;61901;-82
2023/04/24 06:20:55;;;;;;;;;6.25;6.00;;;;;;;;5101223;27;61725;-83
2023/04/24 06:23:21;;;;;;;;;8.00;6.75;;;;;;;;5100350;27;61861;-76
2023/04/24 06:25:46;;;;;;;;;5.00;4.00;;;;;;;;5102400;27;61920;-76
2023/04/24 06:28:12;;;;;;;;;5.50;4.50;;;;;;;;5101687;27;61803;-76
2023/04/24 06:30:37;;;;;;;;;8.25;6.00;;;;;;;;5101093;27;61917;-75
2023/04/24 06:33:02;;;;;;;;;6.00;6.00;;;;;;;;5095841;27;62386;-74
2023/04/24 06:35:28;;;;;;;;;7.50;6.00;;;;;;;;5104194;27;61871;-76
2023/04/24 06:37:53;;;;;;;;;7.50;7.50;;;;;;;;5105055;27;62028;-74
2023/04/24 06:40:19;;;;;;;;;11.25;7.50;;;;;;;;5103106;27;61858;-74
2023/04/24 06:42:44;;;;;;;;;5.75;4.00;;;;;;;;5103475;27;62078;-74
2023/04/24 06:45:10;;;;;;;;;8.75;8.00;;;;;;;;5099021;27;61847;-73
2023/04/24 06:47:35;;;;;;;;;9.50;4.00;;;;;;;;5102385;27;61820;-74
2023/04/24 06:50:00;;;;;;;;;10.00;6.50;;;;;;;;5100349;27;62133;-73
2023/04/24 06:52:26;;;;;;;;;7.50;7.50;;;;;;;;5114688;27;62079;-74
2023/04/24 06:54:51;;;;;;;;;6.50;6.50;;;;;;;;5102976;27;62199;-74
2023/04/24 06:57:17;;;;;;;;;8.75;8.75;;;;;;;;5100257;27;61862;-74
2023/04/24 06:59:42;;;;;;;;;10.25;5.00;;;;;;;;5100184;27;62735;-75
2023/04/24 07:02:07;;;;;;;;;12.75;9.00;;;;;;;;5091036;27;62105;-75
2023/04/24 07:04:33;;;;;;;;;10.00;7.00;;;;;;;;5101550;27;61933;-75
2023/04/24 07:06:58;;;;;;;;;11.00;8.25;;;;;;;;5096878;27;61920;-75
2023/04/24 07:09:25;;;;;;;;;10.50;6.00;;;;;;;;5095303;27;63298;-75
2023/04/24 07:11:50;;;;;;;;;9.50;8.00;;;;;;;;5101735;27;61877;-75
2023/04/24 07:14:15;;;;;;;;;14.25;9.00;;;;;;;;5090900;27;62103;-76
2023/04/24 07:16:41;;;;;;;;;12.75;9.00;;;;;;;;5100209;27;62222;-75
2023/04/24 07:19:06;;;;;;;;;14.25;7.75;;;;;;;;5092630;27;61773;-75
2023/04/24 07:21:32;;;;;;;;;11.75;7.00;;;;;;;;5100303;27;62010;-76
2023/04/24 07:23:57;;;;;;;;;11.00;7.75;;;;;;;;5101553;27;61714;-75
2023/04/24 07:26:23;;;;;;;;;12.50;10.50;;;;;;;;5101575;27;61777;-75
2023/04/24 07:28:48;;;;;;;;;9.75;8.00;;;;;;;;5099988;27;63621;-76
2023/04/24 07:31:13;;;;;;;;;14.00;9.00;;;;;;;;5115857;27;62011;-75
2023/04/24 07:33:39;;;;;;;;;9.00;8.25;;;;;;;;5101252;27;61972;-74
2023/04/24 07:36:05;;;;;;;;;9.75;8.00;;;;;;;;5100089;27;62319;-74
2023/04/24 07:38:30;;;;;;;;;7.50;7.25;;;;;;;;5100437;27;61868;-74
2023/04/24 07:40:56;;;;;;;;;11.50;8.75;;;;;;;;5100226;27;62228;-74
2023/04/24 07:43:23;;;;;;;;;13.00;9.00;;;;;;;;5099599;27;61905;-74
2023/04/24 07:45:48;;;;;;;;;13.00;10.00;;;;;;;;5087724;27;62058;-75
2023/04/24 07:48:16;;;;;;;;;12.50;9.25;;;;;;;;5084178;27;62537;-75
2023/04/24 07:50:41;;;;;;;;;13.75;10.75;;;;;;;;5097319;27;61760;-74
2023/04/24 07:53:07;;;;;;;;;8.50;8.50;;;;;;;;5100583;27;61953;-75
2023/04/24 07:55:32;;;;;;;;;11.75;9.25;;;;;;;;5092896;27;62057;-75
2023/04/24 07:57:57;;;;;;;;;13.00;10.50;;;;;;;;5088174;27;62033;-76
2023/04/24 08:00:22;;;;;;;;;9.75;7.50;;;;;;;;5092136;27;61900;-75
2023/04/24 08:02:47;;;;;;;;;11.25;8.25;;;;;;;;5101416;27;61818;-75
2023/04/24 08:05:13;;;;;;;;;13.50;9.50;;;;;;;;5099539;27;61912;-75
2023/04/24 08:07:38;;;;;;;;;12.75;8.25;;;;;;;;5106525;27;63272;-75
2023/04/24 08:10:04;;;;;;;;;13.00;10.00;;;;;;;;5098785;27;62006;-76
2023/04/24 08:12:29;;;;;;;;;10.25;9.00;;;;;;;;5099159;27;62345;-75
2023/04/24 08:14:55;;;;;;;;;10.50;9.00;;;;;;;;5099846;27;62202;-76
2023/04/24 08:17:20;;;;;;;;;15.00;10.50;;;;;;;;5094089;27;62903;-74
2023/04/24 08:19:48;;;;;;;;;11.75;10.25;;;;;;;;5094390;27;61994;-75
2023/04/24 08:22:13;;;;;;;;;17.25;11.75;;;;;;;;5101604;27;61650;-76
2023/04/24 08:24:39;;;;;;;;;17.00;12.50;;;;;;;;5098829;27;61809;-75
2023/04/24 08:27:04;;;;;;;;;18.75;12.50;;;;;;;;5099980;27;62420;-75
2023/04/24 08:29:30;;;;;;;;;11.75;10.25;;;;;;;;5099272;27;61984;-78
2023/04/24 08:31:55;;;;;;;;;14.25;11.00;;;;;;;;5098326;27;61786;-74
2023/04/24 08:34:21;;;;;;;;;15.75;11.50;;;;;;;;5099332;27;61993;-75
2023/04/24 08:36:46;;;;;;;;;12.25;11.25;;;;;;;;5102757;27;62762;-76
2023/04/24 08:39:11;;;;;;;;;11.75;10.25;;;;;;;;5103514;27;62274;-76
2023/04/24 08:42:12;;;;;;;;;14.25;10.25;;;;;;;;5102898;27;61845;-87
2023/04/24 08:44:38;;;;;;;;;15.50;13.00;;;;;;;;5075628;27;62345;-81
2023/04/24 08:47:04;;;;;;;;;13.75;8.75;;;;;;;;5094328;27;63219;-79
2023/04/24 08:49:29;;;;;;;;;17.50;14.00;;;;;;;;5100924;27;62588;-79
2023/04/24 08:51:55;;;;;;;;;18.50;13.50;;;;;;;;5099109;27;61846;-76
2023/04/24 08:54:20;;;;;;;;;24.00;15.75;;;;;;;;5100673;27;62058;-80
2023/04/24 08:56:47;;;;;;;;;12.75;12.75;;;;;;;;5101352;27;61824;-75
2023/04/24 08:59:13;;;;;;;;;16.25;13.75;;;;;;;;5101850;27;61850;-76
2023/04/24 09:01:39;;;;;;;;;18.50;13.75;;;;;;;;5093275;27;61897;-75
2023/04/24 09:04:06;;;;;;;;;19.25;12.00;;;;;;;;5102572;27;62246;-76
2023/04/24 09:06:32;;;;;;;;;11.25;8.00;;;;;;;;5102174;27;62873;-76
2023/04/24 09:09:00;;;;;;;;;14.25;12.50;;;;;;;;5131265;27;61372;-76
2023/04/24 09:11:26;;;;;;;;;16.75;12.25;;;;;;;;5142050;27;9852;-75
2023/04/24 09:13:53;;;;;;;;;14.00;11.00;;;;;;;;5138909;27;11407;-76
2023/04/24 09:16:19;;;;;;;;;11.50;9.75;;;;;;;;5140213;27;11568;-76
2023/04/24 09:18:44;;;;;;;;;14.25;12.00;;;;;;;;5138498;27;11912;-75
2023/04/24 09:21:10;;;;;;;;;14.50;13.25;;;;;;;;5141684;27;11227;-76
2023/04/24 09:23:35;;;;;;;;;13.75;12.00;;;;;;;;5144010;27;8801;-75
2023/04/24 09:26:01;;;;;;;;;9.75;8.75;;;;;;;;5144818;27;8794;-76
2023/04/24 09:28:37;;;;;;;;;12.25;11.50;;;;;;;;5135678;27;8789;-75
2023/04/24 09:31:09;;;;;;;;;16.00;11.00;;;;;;;;5124794;27;11197;-75
2023/04/24 09:33:35;;;;;;;;;12.75;10.50;;;;;;;;5145564;27;11041;-75
2023/04/24 09:36:00;;;;;;;;;11.75;10.50;;;;;;;;5149774;27;11385;-75
2023/04/24 09:38:36;;;;;;;;;12.50;10.25;;;;;;;;5147607;27;8803;-75
2023/04/24 09:41:03;;;;;;;;;12.00;11.25;;;;;;;;5141776;27;8813;-75
2023/04/24 09:43:28;;;;;;;;;16.25;13.75;;;;;;;;5135490;27;11081;-76
2023/04/24 09:45:56;;;;;;;;;12.75;12.75;;;;;;;;5168597;27;11545;-76
2023/04/24 09:48:29;;;;;;;;;15.00;12.75;;;;;;;;5140854;27;8745;-77
2023/04/24 09:50:55;;;;;;;;;13.75;11.75;;;;;;;;5143654;27;10839;-75
2023/04/24 09:53:23;;;;;;;;;11.25;9.75;;;;;;;;5141059;27;11116;-76
2023/04/24 09:55:50;;;;;;;;;14.75;13.75;;;;;;;;5143364;27;10365;-75
2023/04/24 09:58:15;;;;;;;;;14.75;13.25;;;;;;;;5142917;27;11032;-75
2023/04/24 10:00:41;;;;;;;;;21.25;14.50;;;;;;;;5144848;27;11278;-76
2023/04/24 10:03:06;;;;;;;;;15.50;12.25;;;;;;;;5142700;27;9579;-75
2023/04/24 10:05:32;;;;;;;;;18.00;14.00;;;;;;;;5144299;27;8811;-76
2023/04/24 10:08:08;;;;;;;;;15.25;12.00;;;;;;;;5142719;27;8717;-76
2023/04/24 10:10:34;;;;;;;;;12.50;10.75;;;;;;;;5140628;27;10841;-77
2023/04/24 10:13:00;;;;;;;;;22.00;11.00;;;;;;;;5143579;27;10851;-76
2023/04/24 10:15:26;;;;;;;;;11.00;9.00;;;;;;;;5147324;27;11102;-76
2023/04/24 10:17:54;;;;;;;;;10.50;8.50;;;;;;;;5137571;27;11018;-76
2023/04/24 10:20:24;;;;;;;;;13.50;11.50;;;;;;;;5146721;27;8773;-76
2023/04/24 10:22:50;;;;;;;;;13.75;9.50;;;;;;;;5146298;27;10583;-77
2023/04/24 10:25:26;;;;;;;;;16.00;12.25;;;;;;;;5138717;27;11219;-76
2023/04/24 10:27:53;;;;;;;;;12.50;8.50;;;;;;;;5128967;27;10499;-77
2023/04/24 10:30:19;;;;;;;;;16.25;14.00;;;;;;;;5139787;27;10777;-76
2023/04/24 10:32:45;;;;;;;;;14.25;13.00;;;;;;;;5135037;27;10965;-76
2023/04/24 10:35:14;;;;;;;;;15.00;12.50;;;;;;;;5131394;27;11160;-75
2023/04/24 10:37:50;;;;;;;;;14.00;11.25;;;;;;;;5131508;27;8836;-78
2023/04/24 10:40:18;;;;;;;;;13.00;9.00;;;;;;;;5137669;27;10762;-80
2023/04/24 10:42:47;;;;;;;;;5.50;5.00;;;;;;;;5124366;27;11500;-75
2023/04/24 10:45:21;;;;;;;;;11.00;9.00;;;;;;;;5116434;27;61812;-78
2023/04/24 10:47:53;;;;;;;;;11.50;8.75;;;;;;;;5092499;27;61747;-74
2023/04/24 10:50:18;;;;;;;;;6.00;6.00;;;;;;;;5089517;27;61923;-77
2023/04/24 10:52:44;;;;;;;;;14.50;9.75;;;;;;;;5101428;27;61889;-78
2023/04/24 10:55:12;;;;;;;;;6.50;6.50;;;;;;;;5089293;27;62134;-75
2023/04/24 10:57:37;;;;;;;;;10.00;8.50;;;;;;;;5108491;27;61878;-78
2023/04/24 11:00:18;;;;;;;;;8.25;8.25;;;;;;;;5100314;27;62619;-74
2023/04/24 11:02:49;;;;;;;;;14.75;8.75;;;;;;;;5095892;27;61791;-78
2023/04/24 11:05:17;;;;;;;;;14.00;11.00;;;;;;;;5095394;27;61887;-78
2023/04/24 11:08:01;;;;;;;;;13.00;9.00;;;;;;;;5098475;27;61955;-82
2023/04/24 11:10:27;;;;;;;;;8.25;8.25;;;;;;;;5100820;27;61825;-75
2023/04/24 11:12:52;;;;;;;;;14.50;12.25;;;;;;;;5094138;27;62141;-75
2023/04/24 11:15:19;;;;;;;;;6.75;6.50;;;;;;;;5096152;27;62717;-74
2023/04/24 11:17:45;;;;;;;;;10.50;9.50;;;;;;;;5097411;27;62333;-75
2023/04/24 11:20:11;;;;;;;;;23.75;14.25;;;;;;;;5086806;27;61901;-77
2023/04/24 11:22:37;;;;;;;;;13.25;12.00;;;;;;;;5083864;27;62158;-79
2023/04/24 11:25:04;;;;;;;;;14.50;12.00;;;;;;;;5087316;27;62131;-78
2023/04/24 11:27:30;;;;;;;;;8.25;6.75;;;;;;;;5103300;27;62244;-77
2023/04/24 11:29:55;;;;;;;;;9.50;9.50;;;;;;;;5098422;27;61894;-74
2023/04/24 11:32:27;;;;;;;;;15.50;11.00;;;;;;;;5095735;27;62394;-78
2023/04/24 11:34:57;;;;;;;;;8.75;8.50;;;;;;;;5094661;27;62884;-77
2023/04/24 11:37:26;;;;;;;;;13.50;11.75;;;;;;;;5101413;27;62198;-77
2023/04/24 11:39:57;;;;;;;;;12.25;9.25;;;;;;;;5100413;27;61835;-77
2023/04/24 11:42:22;;;;;;;;;8.00;8.00;;;;;;;;5104227;27;62038;-76
2023/04/24 11:44:49;;;;;;;;;10.00;8.25;;;;;;;;5097485;27;62615;-76
2023/04/24 11:47:15;;;;;;;;;9.25;5.50;;;;;;;;5099744;27;61796;-76
2023/04/24 11:49:40;;;;;;;;;9.75;7.50;;;;;;;;5099262;27;62081;-76
2023/04/24 11:52:06;;;;;;;;;7.50;5.75;;;;;;;;5101384;27;61864;-79
2023/04/24 11:54:31;;;;;;;;;5.00;5.00;;;;;;;;5089657;27;63256;-77
2023/04/24 11:56:57;;;;;;;;;7.00;6.75;;;;;;;;5129030;27;61948;-77
2023/04/24 11:59:22;;;;;;;;;9.25;6.75;;;;;;;;5107633;27;61885;-77
2023/04/24 12:01:48;;;;;;;;;5.00;5.00;;;;;;;;5095447;27;62193;-78
2023/04/24 12:04:14;;;;;;;;;7.75;5.75;;;;;;;;5103018;27;62842;-78
2023/04/24 12:06:39;;;;;;;;;5.00;4.00;;;;;;;;5105308;27;62237;-77
2023/04/24 12:09:04;;;;;;;;;6.25;4.00;;;;;;;;5103534;27;61785;-77
2023/04/24 12:11:30;;;;;;;;;2.75;2.50;;;;;;;;5100982;27;61980;-76
2023/04/24 12:13:55;;;;;;;;;4.75;4.50;;;;;;;;5101743;27;61975;-76
2023/04/24 12:16:20;;;;;;;;;4.25;3.50;;;;;;;;5107384;27;61788;-77
2023/04/24 12:18:46;;;;;;;;;2.75;2.75;;;;;;;;5106976;27;61904;-77
2023/04/24 12:21:15;;;;;;;;;5.75;5.75;;;;;;;;5109183;27;61766;-77
2023/04/24 12:23:42;;;;;;;;;4.50;4.50;;;;;;;;5110595;27;63225;-76
2023/04/24 12:26:07;;;;;;;;;3.50;2.00;;;;;;;;5109672;27;62318;-77
2023/04/24 12:28:36;;;;;;;;;3.50;3.50;;;;;;;;5108784;27;62193;-77
2023/04/24 12:31:02;;;;;;;;;4.25;4.00;;;;;;;;5104247;27;62351;-77
2023/04/24 12:33:27;;;;;;;;;3.00;3.00;;;;;;;;5107321;27;62655;-78
2023/04/24 12:35:55;;;;;;;;;6.00;4.25;;;;;;;;5101165;27;62024;-78
2023/04/24 12:38:25;;;;;;;;;6.00;3.00;;;;;;;;5100097;27;61797;-78
2023/04/24 12:41:04;;;;;;;;;5.00;3.00;;;;;;;;5099066;27;62413;-78
2023/04/24 12:43:29;;;;;;;;;4.50;3.00;;;;;;;;5100118;27;63563;-78
2023/04/24 12:45:55;;;;;;;;;5.25;4.00;;;;;;;;5103303;27;61842;-77
2023/04/24 12:48:21;;;;;;;;;4.25;3.25;;;;;;;;5105297;27;61991;-76
2023/04/24 12:50:46;;;;;;;;;8.00;4.00;;;;;;;;5103629;27;62256;-79
2023/04/24 12:53:11;;;;;;;;;7.00;5.50;;;;;;;;5101502;27;62035;-79
2023/04/24 12:55:37;;;;;;;;;6.00;3.50;;;;;;;;5099207;27;62067;-81
2023/04/24 12:58:02;;;;;;;;;7.00;3.00;;;;;;;;5103723;27;62004;-79
2023/04/24 13:00:28;;;;;;;;;4.50;3.50;;;;;;;;5103287;27;62021;-79
2023/04/24 13:02:54;;;;;;;;;4.75;3.00;;;;;;;;5099389;27;61850;-79
2023/04/24 13:05:19;;;;;;;;;2.25;2.25;;;;;;;;5101604;27;62690;-82
2023/04/24 13:07:44;;;;;;;;;6.50;3.00;;;;;;;;5104647;27;62091;-76
2023/04/24 13:10:10;;;;;;;;;2.50;2.50;;;;;;;;5108444;27;62314;-76
2023/04/24 13:12:35;;;;;;;;;2.75;2.00;;;;;;;;5102732;27;62755;-77
2023/04/24 13:15:00;;;;;;;;;4.50;3.50;;;;;;;;5104302;27;61996;-76
2023/04/24 13:17:26;;;;;;;;;2.50;2.50;;;;;;;;5100298;27;62185;-76
2023/04/24 13:19:51;;;;;;;;;4.00;3.00;;;;;;;;5101013;27;61806;-76
2023/04/24 13:22:18;;;;;;;;;4.00;2.75;;;;;;;;5103188;27;61706;-75
2023/04/24 13:24:44;;;;;;;;;3.00;3.00;;;;;;;;5099909;27;62146;-75
2023/04/24 13:27:09;;;;;;;;;3.00;2.25;;;;;;;;5102777;27;61850;-75
2023/04/24 13:29:35;;;;;;;;;4.25;3.25;;;;;;;;5101896;27;62488;-75
2023/04/24 13:32:00;;;;;;;;;4.50;4.00;;;;;;;;5102685;27;62700;-75
2023/04/24 13:34:26;;;;;;;;;4.00;1.75;;;;;;;;5088833;27;61987;-77
2023/04/24 13:36:53;;;;;;;;;3.50;2.50;;;;;;;;5105701;27;61779;-76
2023/04/24 13:39:18;;;;;;;;;5.00;5.00;;;;;;;;5099362;27;62014;-75
2023/04/24 13:41:43;;;;;;;;;4.00;2.00;;;;;;;;5099827;27;61908;-76
2023/04/24 13:44:09;;;;;;;;;4.50;2.75;;;;;;;;5099534;27;62417;-76
2023/04/24 13:46:34;;;;;;;;;4.75;3.00;;;;;;;;5101682;27;62158;-77
2023/04/24 13:49:01;;;;;;;;;2.50;2.50;;;;;;;;5106536;27;61838;-77
2023/04/24 13:51:29;;;;;;;;;5.00;2.00;;;;;;;;5097861;27;61688;-76
2023/04/24 13:53:55;;;;;;;;;4.00;4.00;;;;;;;;5089588;27;61710;-76
2023/04/24 13:56:20;;;;;;;;;2.67;2.33;;;;;;;;5096743;27;62381;-77
2023/04/24 13:58:46;;;;;;;;;5.00;4.00;;;;;;;;5109392;27;62416;-77
2023/04/24 14:01:11;;;;;;;;;2.00;2.00;;;;;;;;5104311;27;62257;-76
2023/04/24 14:03:37;;;;;;;;;4.00;2.67;;;;;;;;5093665;27;62003;-75
2023/04/24 14:06:02;;;;;;;;;1.00;1.00;;;;;;;;5090316;27;61920;-79
2023/04/24 14:08:27;;;;;;;;;3.33;3.33;;;;;;;;5096997;27;62114;-77
2023/04/24 14:10:53;;;;;;;;;2.67;2.67;;;;;;;;5104150;27;61862;-76
2023/04/24 14:13:18;;;;;;;;;2.00;2.00;;;;;;;;5099504;27;62393;-76
2023/04/24 14:15:44;;;;;;;;;2.67;2.67;;;;;;;;5092019;27;62997;-77
2023/04/24 14:18:09;;;;;;;;;2.33;2.00;;;;;;;;5097983;27;61934;-78
2023/04/24 14:20:34;;;;;;;;;5.00;3.00;;;;;;;;5096785;27;62548;-80
2023/04/24 14:23:00;;;;;;;;;5.67;2.00;;;;;;;;5098461;27;62045;-78
2023/04/24 14:25:25;;;;;;;;;3.00;3.00;;;;;;;;5109518;27;61796;-78
2023/04/24 14:27:51;;;;;;;;;2.33;2.33;;;;;;;;5100346;27;61982;-77
2023/04/24 14:30:16;;;;;;;;;3.33;2.33;;;;;;;;5103778;27;61804;-79
2023/04/24 14:32:41;;;;;;;;;1.00;1.00;;;;;;;;5102622;27;61747;-81